createdAt,value
2019-06-26T00:02:25.002Z,17.10
2019-06-26T00:05:13.607Z,16.27
2019-06-26T00:08:02.883Z,16.13
2019-06-26T00:10:52.155Z,16.27
2019-06-26T00:13:41.145Z,15.30
2019-06-26T00:16:30.559Z,15.30
2019-06-26T00:19:20.265Z,15.60
2019-06-26T00:22:09.490Z,14.00
2019-06-26T00:24:58.861Z,14.37
2019-06-26T00:27:49.706Z,18.07
2019-06-26T00:30:39.186Z,16.97
2019-06-26T00:33:28.106Z,16.43
2019-06-26T00:36:17.229Z,16.30
2019-06-26T00:39:07.946Z,15.40
2019-06-26T00:41:56.851Z,15.50
2019-06-26T00:44:45.536Z,15.00
2019-06-26T00:47:34.777Z,15.53
2019-06-26T00:50:24.304Z,16.47
2019-06-26T00:53:13.828Z,17.30
2019-06-26T00:56:03.134Z,16.53
2019-06-26T00:58:52.499Z,15.73
2019-06-26T01:01:42.280Z,14.10
2019-06-26T01:04:36.323Z,14.10
2019-06-26T01:07:24.784Z,14.97
2019-06-26T01:10:15.243Z,14.07
2019-06-26T01:13:04.254Z,15.07
2019-06-26T01:15:53.448Z,14.60
2019-06-26T01:18:42.086Z,14.87
2019-06-26T01:21:31.361Z,14.57
2019-06-26T01:24:20.255Z,16.20
2019-06-26T01:27:11.245Z,17.67
2019-06-26T01:30:00.096Z,15.27
2019-06-26T01:32:49.247Z,15.10
2019-06-26T01:35:38.325Z,13.57
2019-06-26T01:38:27.257Z,13.50
2019-06-26T01:41:16.616Z,13.40
2019-06-26T01:44:14.767Z,13.20
2019-06-26T01:46:56.736Z,13.27
2019-06-26T01:49:45.532Z,12.80
2019-06-26T01:52:34.863Z,13.80
2019-06-26T01:55:23.844Z,14.17
2019-06-26T01:58:12.223Z,13.20
2019-06-26T02:01:01.367Z,13.60
2019-06-26T02:03:50.460Z,13.93
2019-06-26T02:06:39.778Z,13.60
2019-06-26T02:09:28.983Z,14.40
2019-06-26T02:12:19.184Z,14.00
2019-06-26T02:15:09.025Z,14.00
2019-06-26T02:17:58.088Z,12.70
2019-06-26T02:20:46.881Z,13.30
2019-06-26T02:23:36.042Z,13.60
2019-06-26T02:26:25.386Z,13.97
2019-06-26T02:29:14.655Z,13.43
2019-06-26T02:32:04.054Z,13.23
2019-06-26T02:34:53.359Z,13.93
2019-06-26T02:37:42.663Z,16.30
2019-06-26T02:40:31.454Z,14.57
2019-06-26T02:43:21.514Z,14.03
2019-06-26T02:46:10.566Z,14.57
2019-06-26T02:48:59.816Z,13.23
2019-06-26T02:51:49.122Z,14.07
2019-06-26T02:54:38.472Z,14.07
2019-06-26T02:57:27.670Z,13.80
2019-06-26T03:00:17.100Z,15.43
2019-06-26T03:03:05.895Z,14.30
2019-06-26T03:05:55.022Z,15.40
2019-06-26T03:08:44.738Z,13.27
2019-06-26T03:11:33.812Z,14.30
2019-06-26T03:14:23.272Z,16.10
2019-06-26T03:17:13.286Z,13.57
2019-06-26T03:20:03.194Z,14.40
2019-06-26T03:22:51.907Z,14.37
2019-06-26T03:25:40.911Z,14.13
2019-06-26T03:28:30.202Z,14.17
2019-06-26T03:31:19.451Z,13.70
2019-06-26T03:34:09.088Z,14.23
2019-06-26T03:36:58.561Z,13.80
2019-06-26T03:39:47.860Z,14.00
2019-06-26T03:42:37.419Z,13.87
2019-06-26T03:45:26.785Z,13.97
2019-06-26T03:48:17.788Z,14.17
2019-06-26T03:51:06.481Z,14.37
2019-06-26T03:53:55.730Z,15.60
2019-06-26T03:56:44.571Z,15.07
2019-06-26T03:59:33.334Z,14.87
2019-06-26T04:02:22.710Z,14.13
2019-06-26T04:05:11.649Z,14.53
2019-06-26T04:08:01.145Z,14.97
2019-06-26T04:10:50.187Z,14.90
2019-06-26T04:13:39.677Z,13.40
2019-06-26T04:16:28.698Z,15.83
2019-06-26T04:19:18.106Z,14.70
2019-06-26T04:22:06.977Z,14.30
2019-06-26T04:24:55.839Z,16.27
2019-06-26T04:27:45.517Z,15.67
2019-06-26T04:30:34.648Z,14.70
2019-06-26T04:33:23.803Z,15.27
2019-06-26T04:36:12.833Z,14.97
2019-06-26T04:39:01.446Z,14.33
2019-06-26T04:41:50.360Z,13.20
2019-06-26T04:44:39.593Z,13.70
2019-06-26T04:47:27.946Z,12.37
2019-06-26T04:50:18.012Z,13.77
2019-06-26T04:53:07.094Z,12.30
2019-06-26T04:55:55.695Z,11.57
2019-06-26T04:58:45.220Z,11.60
2019-06-26T05:01:34.130Z,10.60
2019-06-26T05:04:23.049Z,10.53
2019-06-26T05:07:11.991Z,10.50
2019-06-26T05:10:01.278Z,9.77
2019-06-26T05:12:50.720Z,9.90
2019-06-26T05:15:40.329Z,10.00
2019-06-26T05:18:29.810Z,9.23
2019-06-26T05:21:19.272Z,9.23
2019-06-26T05:35:22.242Z,8.97
2019-06-26T05:38:11.716Z,9.50
2019-06-26T05:41:00.798Z,8.10
2019-06-26T05:43:50.200Z,8.13
2019-06-26T05:46:39.069Z,7.50
2019-06-26T05:52:16.840Z,6.70
2019-06-26T05:55:08.460Z,7.50
2019-06-26T06:03:36.166Z,7.90
2019-06-26T06:06:40.664Z,7.77
2019-06-26T06:09:15.678Z,7.63
2019-06-26T06:12:05.270Z,7.87
2019-06-26T06:14:54.500Z,7.43
2019-06-26T06:17:43.859Z,7.87
2019-06-26T06:20:39.386Z,8.97
2019-06-26T06:23:28.121Z,7.70
2019-06-26T06:26:17.203Z,7.93
2019-06-26T06:29:06.265Z,7.63
2019-06-26T06:31:55.586Z,8.23
2019-06-26T06:34:49.741Z,8.33
2019-06-26T06:37:38.494Z,7.50
2019-06-26T06:40:30.243Z,8.20
2019-06-26T06:43:22.173Z,8.00
2019-06-26T06:46:11.603Z,8.17
2019-06-26T06:49:00.652Z,7.90
2019-06-26T06:51:59.211Z,8.70
2019-06-26T06:54:48.417Z,8.60
2019-06-26T06:57:37.597Z,8.40
2019-06-26T07:00:27.000Z,7.97
2019-06-26T07:03:15.756Z,8.77
2019-06-26T07:06:11.060Z,8.63
2019-06-26T07:09:00.065Z,7.90
2019-06-26T07:11:49.357Z,7.30
2019-06-26T07:14:37.884Z,7.70
2019-06-26T07:31:29.437Z,5.90
2019-06-26T07:34:18.405Z,6.40
2019-06-26T07:37:07.566Z,5.50
2019-06-26T07:40:01.286Z,5.43
2019-06-26T07:42:47.435Z,5.60
2019-06-26T07:45:36.669Z,5.10
2019-06-26T07:48:26.047Z,5.37
2019-06-26T07:51:15.554Z,5.70
2019-06-26T07:54:04.756Z,4.90
2019-06-26T07:56:54.090Z,5.87
2019-06-26T07:59:42.849Z,5.60
2019-06-26T08:02:32.137Z,6.30
2019-06-26T08:05:21.325Z,5.80
2019-06-26T08:08:14.207Z,6.50
2019-06-26T08:11:00.947Z,6.30
2019-06-26T08:13:49.806Z,6.47
2019-06-26T08:16:39.080Z,7.67
2019-06-26T08:19:27.764Z,7.70
2019-06-26T08:22:17.214Z,8.87
2019-06-26T08:25:08.204Z,7.90
2019-06-26T08:27:57.284Z,8.80
2019-06-26T08:30:46.383Z,7.93
2019-06-26T08:33:35.620Z,8.80
2019-06-26T08:36:24.607Z,8.17
2019-06-26T08:39:13.899Z,8.13
2019-06-26T08:42:02.927Z,8.07
2019-06-26T08:44:51.839Z,8.60
2019-06-26T08:47:41.457Z,7.13
2019-06-26T08:50:30.774Z,8.17
2019-06-26T08:53:20.310Z,6.90
2019-06-26T08:56:09.443Z,8.47
2019-06-26T08:58:58.334Z,7.50
2019-06-26T09:01:47.416Z,8.00
2019-06-26T09:04:36.664Z,9.30
2019-06-26T09:07:25.838Z,7.53
2019-06-26T09:10:15.164Z,7.80
2019-06-26T09:13:04.680Z,8.27
2019-06-26T09:15:53.898Z,8.40
2019-06-26T09:18:43.114Z,8.07
2019-06-26T09:21:32.312Z,8.30
2019-06-26T09:24:21.868Z,8.57
2019-06-26T09:27:14.625Z,8.30
2019-06-26T09:30:01.433Z,8.93
2019-06-26T09:32:51.105Z,8.50
2019-06-26T09:35:40.267Z,8.50
2019-06-26T09:38:29.548Z,9.00
2019-06-26T09:41:19.006Z,9.00
2019-06-26T09:44:08.118Z,8.83
2019-06-26T09:46:57.177Z,8.57
2019-06-26T09:49:46.417Z,8.27
2019-06-26T09:52:35.064Z,8.33
2019-06-26T09:55:24.374Z,7.40
2019-06-26T09:58:13.868Z,7.33
2019-06-26T10:01:02.694Z,6.50
2019-06-26T10:03:51.538Z,6.57
2019-06-26T10:06:40.756Z,6.60
2019-06-26T10:09:30.377Z,6.90
2019-06-26T10:12:19.938Z,6.80
2019-06-26T10:15:10.667Z,5.90
2019-06-26T10:17:59.108Z,6.40
2019-06-26T10:20:48.403Z,6.70
2019-06-26T10:23:38.054Z,5.90
2019-06-26T10:26:27.492Z,6.60
2019-06-26T10:29:17.274Z,6.20
2019-06-26T10:32:06.478Z,5.87
2019-06-26T10:34:56.467Z,5.47
2019-06-26T10:37:45.774Z,5.50
2019-06-26T10:40:34.904Z,5.85
2019-06-26T10:43:24.194Z,5.40
2019-06-26T10:46:13.933Z,5.90
2019-06-26T10:54:43.985Z,5.80
2019-06-26T10:57:30.142Z,5.50
2019-06-26T11:00:19.519Z,5.80
2019-06-26T11:03:08.664Z,6.23
2019-06-26T11:05:57.801Z,5.43
2019-06-26T11:08:46.979Z,5.30
2019-06-26T11:11:36.277Z,6.40
2019-06-26T11:14:24.817Z,6.50
2019-06-26T11:17:13.629Z,5.50
2019-06-26T11:20:02.737Z,5.70
2019-06-26T11:22:52.291Z,5.10
2019-06-26T12:07:48.737Z,5.40
2019-06-26T12:10:37.912Z,6.10
2019-06-26T12:16:15.738Z,6.65
2019-06-26T12:19:04.629Z,6.50
2019-06-26T12:24:42.464Z,5.70
2019-06-26T12:27:31.476Z,6.47
2019-06-26T12:30:21.522Z,6.40
2019-06-26T12:33:11.009Z,6.23
2019-06-26T12:36:00.326Z,6.67
2019-06-26T12:38:49.469Z,6.17
2019-06-26T12:44:26.797Z,6.50
2019-06-26T12:47:16.271Z,6.13
2019-06-26T12:50:07.783Z,5.77
2019-06-26T12:52:56.748Z,6.00
2019-06-26T12:55:46.238Z,6.20
2019-06-26T13:01:25.203Z,7.20
2019-06-26T13:04:15.175Z,6.70
2019-06-26T13:07:04.022Z,7.30
2019-06-26T13:09:53.219Z,6.93
2019-06-26T13:12:45.685Z,7.80
2019-06-26T13:15:32.821Z,6.83
2019-06-26T13:18:21.816Z,7.17
2019-06-26T13:21:11.185Z,6.50
2019-06-26T13:24:00.249Z,6.83
2019-06-26T13:26:53.397Z,6.60
2019-06-26T13:29:40.506Z,7.07
2019-06-26T13:32:29.603Z,7.23
2019-06-26T13:35:18.607Z,6.50
2019-06-26T13:38:07.620Z,6.93
2019-06-26T13:40:57.250Z,7.23
2019-06-26T13:43:46.574Z,6.90
2019-06-26T13:46:35.840Z,7.07
2019-06-26T13:49:24.974Z,7.50
2019-06-26T13:52:14.286Z,7.07
2019-06-26T13:55:04.181Z,7.57
2019-06-26T13:57:53.413Z,8.83
2019-06-26T14:00:41.896Z,7.37
2019-06-26T14:03:31.152Z,8.30
2019-06-26T14:06:20.455Z,7.80
2019-06-26T14:09:10.007Z,7.40
2019-06-26T14:11:59.479Z,7.60
2019-06-26T14:14:57.537Z,7.40
2019-06-26T14:17:39.055Z,6.80
2019-06-26T14:20:28.078Z,6.67
2019-06-26T14:23:16.970Z,7.23
2019-06-26T14:26:06.322Z,7.87
2019-06-26T14:28:55.603Z,7.90
2019-06-26T14:31:44.724Z,7.30
2019-06-26T14:34:33.933Z,7.90
2019-06-26T14:37:23.411Z,7.90
2019-06-26T14:40:12.257Z,7.53
2019-06-26T14:43:01.648Z,6.70
2019-06-26T14:45:50.801Z,6.80
2019-06-26T14:48:39.430Z,8.57
2019-06-26T14:51:42.224Z,7.90
2019-06-26T14:54:19.570Z,7.73
2019-06-26T14:57:08.718Z,7.50
2019-06-26T14:59:58.032Z,7.60
2019-06-26T15:02:47.561Z,7.70
2019-06-26T15:05:36.914Z,7.40
2019-06-26T15:08:26.199Z,7.47
2019-06-26T15:11:15.865Z,7.60
2019-06-26T15:14:05.763Z,6.90
2019-06-26T15:16:54.911Z,7.20
2019-06-26T15:19:44.610Z,7.77
2019-06-26T15:22:33.787Z,7.03
2019-06-26T15:25:23.364Z,6.70
2019-06-26T15:28:12.601Z,6.87
2019-06-26T15:31:01.854Z,6.23
2019-06-26T15:33:51.063Z,7.60
2019-06-26T15:36:40.158Z,6.73
2019-06-26T15:39:29.388Z,6.40
2019-06-26T15:42:18.286Z,7.87
2019-06-26T15:45:08.518Z,6.33
2019-06-26T15:47:57.605Z,7.07
2019-06-26T15:50:46.879Z,6.50
2019-06-26T15:53:36.044Z,7.00
2019-06-26T15:56:25.116Z,7.20
2019-06-26T15:59:14.763Z,6.50
2019-06-26T16:02:03.524Z,6.30
2019-06-26T16:04:53.049Z,7.73
2019-06-26T16:07:42.113Z,7.23
2019-06-26T16:10:34.459Z,7.60
2019-06-26T16:13:21.746Z,6.87
2019-06-26T16:16:10.827Z,7.50
2019-06-26T16:19:10.542Z,7.35
2019-06-26T16:21:59.389Z,7.10
2019-06-26T16:24:48.468Z,7.90
2019-06-26T16:38:51.534Z,6.90
2019-06-26T16:41:41.321Z,7.60
2019-06-26T16:47:18.925Z,6.87
2019-06-26T16:50:09.756Z,7.00
2019-06-26T16:55:47.665Z,7.10
2019-06-26T16:58:36.816Z,6.97
2019-06-26T17:01:26.273Z,7.90
2019-06-26T17:04:15.563Z,7.37
2019-06-26T17:07:04.529Z,8.30
2019-06-26T17:09:54.266Z,7.83
2019-06-26T17:12:43.370Z,8.30
2019-06-26T17:15:32.649Z,7.50
2019-06-26T17:18:22.032Z,8.93
2019-06-26T17:21:11.605Z,9.03
2019-06-26T17:24:00.407Z,8.40
2019-06-26T17:26:49.861Z,8.43
2019-06-26T17:29:38.492Z,7.70
2019-06-26T18:06:12.945Z,3.20
2019-06-26T18:09:02.225Z,3.40
2019-06-26T18:17:27.987Z,4.13
2019-06-26T18:20:17.150Z,10.37
2019-06-26T18:23:07.854Z,3.77
2019-06-26T18:26:11.977Z,2.90
2019-06-26T18:28:46.849Z,3.10
2019-06-26T18:31:36.072Z,4.07
2019-06-26T18:34:25.032Z,2.93
2019-06-26T18:37:14.100Z,4.00
2019-06-26T18:40:03.031Z,3.87
2019-06-26T18:42:52.534Z,3.70
2019-06-26T18:45:41.490Z,3.07
2019-06-26T18:48:30.452Z,3.10
2019-06-26T18:51:19.824Z,3.77
2019-06-26T18:54:09.104Z,4.30
2019-06-26T18:56:57.651Z,3.63
2019-06-26T18:59:48.842Z,65.27
2019-06-26T19:02:38.137Z,34.17
2019-06-26T19:05:27.288Z,28.67
2019-06-26T19:08:16.368Z,4.80
2019-06-26T19:11:05.736Z,4.60
2019-06-26T19:13:55.429Z,3.67
2019-06-26T19:16:44.388Z,3.90
2019-06-26T19:19:33.651Z,3.23
2019-06-26T19:22:22.652Z,3.60
2019-06-26T19:25:12.834Z,3.80
2019-06-26T19:28:01.973Z,3.77
2019-06-26T19:30:51.027Z,4.87
2019-06-26T19:33:40.202Z,4.00
2019-06-26T19:36:29.212Z,5.27
2019-06-26T19:39:20.890Z,4.30
2019-06-26T19:42:09.027Z,4.60
2019-06-26T19:53:22.841Z,4.80
2019-06-26T19:56:11.956Z,5.03
2019-06-26T19:59:00.763Z,5.10
2019-06-26T20:01:51.487Z,5.30
2019-06-26T20:04:40.565Z,4.43
2019-06-26T20:07:29.811Z,5.70
2019-06-26T20:10:19.871Z,4.37
2019-06-26T20:13:09.269Z,5.03
2019-06-26T20:15:58.135Z,3.73
2019-06-26T20:18:47.801Z,3.70
2019-06-26T20:21:36.796Z,4.05
2019-06-26T20:24:39.640Z,3.90
2019-06-26T20:27:16.606Z,3.40
2019-06-26T20:30:09.692Z,3.25
2019-06-26T20:32:59.108Z,4.97
2019-06-26T20:35:48.041Z,4.17
2019-06-26T20:38:37.091Z,3.25
2019-06-26T20:41:26.698Z,3.55
2019-06-26T20:44:16.150Z,3.60
2019-06-26T20:47:04.887Z,3.92
2019-06-26T20:49:54.172Z,3.98
2019-06-26T20:52:43.643Z,3.50
2019-06-26T20:55:32.985Z,6.42
2019-06-26T20:58:22.386Z,4.20
2019-06-26T21:01:12.020Z,4.37
2019-06-26T21:04:01.246Z,6.42
2019-06-26T21:06:50.569Z,3.90
2019-06-26T21:09:39.742Z,4.53
2019-06-26T21:12:28.766Z,3.00
2019-06-26T21:15:18.554Z,3.85
2019-06-26T21:18:07.890Z,3.30
2019-06-26T21:20:56.389Z,3.58
2019-06-26T21:23:45.864Z,3.60
2019-06-26T21:26:34.325Z,5.90
2019-06-26T21:29:23.349Z,3.50
2019-06-26T21:32:12.924Z,3.72
2019-06-26T21:35:01.954Z,4.28
2019-06-26T21:37:50.799Z,3.70
2019-06-26T21:40:39.994Z,3.98
2019-06-26T21:43:29.375Z,3.83
2019-06-26T21:46:18.285Z,3.60
2019-06-26T21:49:07.722Z,4.58
2019-06-26T21:51:57.110Z,3.85
2019-06-26T21:54:46.578Z,4.78
2019-06-26T21:57:35.449Z,4.05
2019-06-26T22:00:25.615Z,4.20
2019-06-26T22:03:14.808Z,4.25
2019-06-26T22:06:03.739Z,4.35
2019-06-26T22:08:52.813Z,4.33
2019-06-26T22:11:41.549Z,4.60
2019-06-26T22:14:30.258Z,4.10
2019-06-26T22:17:19.586Z,4.10
2019-06-26T22:20:12.675Z,3.87
2019-06-26T22:23:01.214Z,4.35
2019-06-26T22:25:51.517Z,4.50
2019-06-26T22:28:41.064Z,4.00
2019-06-26T22:31:30.275Z,3.90
2019-06-26T22:34:19.493Z,3.37
2019-06-26T22:37:08.870Z,4.60
2019-06-26T22:39:58.298Z,3.80
2019-06-26T22:42:47.592Z,4.40
2019-06-26T22:45:37.087Z,5.35
2019-06-26T22:48:25.991Z,4.05
2019-06-26T22:51:15.230Z,4.83
2019-06-26T22:54:04.671Z,3.65
2019-06-26T22:56:53.978Z,3.17
2019-06-26T22:59:43.056Z,3.80
2019-06-26T23:02:32.303Z,3.35
2019-06-26T23:05:21.364Z,3.62
2019-06-26T23:08:11.941Z,3.55
2019-06-26T23:11:01.550Z,3.80
2019-06-26T23:13:50.783Z,3.95
2019-06-26T23:16:40.401Z,3.37
2019-06-26T23:19:29.562Z,3.25
2019-06-26T23:22:19.232Z,3.47
2019-06-26T23:25:09.048Z,4.05
2019-06-26T23:27:58.597Z,3.75
2019-06-26T23:30:47.667Z,3.30
2019-06-26T23:33:37.060Z,3.17
2019-06-26T23:36:25.996Z,3.62
2019-06-26T23:39:15.539Z,3.35
2019-06-26T23:42:04.801Z,3.30
2019-06-26T23:44:53.848Z,3.00
2019-06-26T23:47:43.395Z,3.30
2019-06-26T23:50:32.175Z,3.65
2019-06-26T23:53:21.514Z,3.70
2019-06-26T23:56:10.272Z,3.45
2019-06-26T23:58:59.404Z,3.65
